Time;durP1;ratioP1;P1;durP2;ratioP2;P2;SDS_P1;SDS_P2;PMS_P1;PMS_P2;Temp;Humidity;BMP_temperature;BMP_pressure;BME280_temperature;BME280_humidity;BME280_pressure;Samples;Min_cycle;Max_cycle;Signal;HPM_P1;HPM_P2
2022/04/03 00:00:47;;;;;;;10.93;9.55;;;2.50;76.90;;;;;;5092184;28;20702;-64
2022/04/03 00:03:15;;;;;;;11.63;9.48;;;2.50;77.10;;;;;;5100321;28;20188;-63
2022/04/03 00:05:43;;;;;;;11.43;9.82;;;2.50;77.00;;;;;;5112250;28;20619;-63
2022/04/03 00:08:12;;;;;;;18.90;16.15;;;2.50;76.70;;;;;;5104460;28;20490;-63
2022/04/03 00:10:40;;;;;;;12.48;9.88;;;2.50;77.10;;;;;;5092430;28;20224;-63
2022/04/03 00:13:08;;;;;;;14.90;10.00;;;2.50;76.90;;;;;;5098085;28;20188;-64
2022/04/03 00:15:41;;;;;;;16.10;13.57;;;2.50;76.90;;;;;;5112473;28;20283;-64
2022/04/03 00:18:08;;;;;;;15.32;12.48;;;2.50;76.70;;;;;;5105513;28;20220;-64
2022/04/03 00:20:38;;;;;;;13.80;10.32;;;2.50;77.20;;;;;;5091740;28;20544;-63
2022/04/03 00:23:07;;;;;;;24.73;19.20;;;2.50;77.50;;;;;;5096575;28;20307;-63
2022/04/03 00:25:35;;;;;;;14.35;10.93;;;2.50;77.50;;;;;;5111790;28;20314;-63
2022/04/03 00:28:02;;;;;;;12.32;10.60;;;2.50;77.40;;;;;;5107314;28;20184;-64
2022/04/03 00:30:29;;;;;;;12.38;10.60;;;2.50;77.30;;;;;;5091666;28;20203;-63
2022/04/03 00:32:57;;;;;;;14.18;10.70;;;2.50;77.30;;;;;;5094190;28;20185;-63
2022/04/03 00:35:24;;;;;;;13.05;10.70;;;2.50;77.40;;;;;;5111652;28;20205;-63
2022/04/03 00:37:55;;;;;;;14.82;10.05;;;2.50;76.70;;;;;;5109729;28;20200;-65
2022/04/03 00:40:26;;;;;;;12.35;10.45;;;2.50;76.60;;;;;;5091772;28;20193;-64
2022/04/03 00:42:53;;;;;;;13.05;10.40;;;2.50;76.70;;;;;;5092585;28;20656;-63
2022/04/03 00:45:20;;;;;;;13.73;9.60;;;2.50;76.90;;;;;;5111957;28;20249;-63
2022/04/03 00:47:49;;;;;;;12.05;9.50;;;2.50;76.90;;;;;;5111429;28;20287;-64
2022/04/03 00:50:18;;;;;;;11.57;9.50;;;2.40;77.00;;;;;;5091414;28;20276;-69
2022/04/03 00:52:45;;;;;;;14.15;10.30;;;2.50;76.90;;;;;;5094334;28;20185;-64
2022/04/03 00:55:14;;;;;;;11.63;10.40;;;2.50;77.00;;;;;;5114833;28;20192;-63
2022/04/03 00:57:43;;;;;;;10.75;9.48;;;2.50;76.80;;;;;;5115737;28;20283;-63
2022/04/03 01:00:12;;;;;;;12.57;10.13;;;2.50;76.70;;;;;;5096520;28;20189;-63
2022/04/03 01:02:40;;;;;;;11.40;10.05;;;2.50;76.70;;;;;;5095004;28;20705;-63
2022/04/03 01:05:08;;;;;;;11.25;9.88;;;2.50;76.80;;;;;;5112412;28;20189;-63
2022/04/03 01:07:36;;;;;;;11.73;10.38;;;2.50;76.90;;;;;;5115455;28;20643;-63
2022/04/03 01:10:04;;;;;;;11.23;9.60;;;2.50;77.10;;;;;;5098219;28;20271;-63
2022/04/03 01:12:33;;;;;;;13.10;9.98;;;2.50;77.20;;;;;;5094992;28;20254;-64
2022/04/03 01:15:03;;;;;;;13.80;10.52;;;2.50;77.20;;;;;;5110709;28;20188;-65
2022/04/03 01:17:30;;;;;;;14.50;10.70;;;2.50;76.80;;;;;;5114936;28;20553;-63
2022/04/03 01:19:57;;;;;;;13.07;9.77;;;2.50;78.30;;;;;;5100358;28;20181;-64
2022/04/03 01:22:24;;;;;;;12.07;9.50;;;2.40;76.70;;;;;;5095111;28;20571;-63
2022/04/03 01:24:57;;;;;;;13.85;11.07;;;2.30;77.10;;;;;;5105927;28;20284;-63
2022/04/03 01:27:24;;;;;;;13.13;11.25;;;2.40;77.70;;;;;;5115074;28;20223;-64
2022/04/03 01:29:52;;;;;;;14.93;12.13;;;2.30;77.50;;;;;;5097919;28;20495;-63
2022/04/03 01:32:22;;;;;;;15.13;11.85;;;2.30;77.80;;;;;;5094748;28;20208;-63
2022/04/03 01:34:49;;;;;;;14.05;10.93;;;2.30;78.10;;;;;;5095685;28;20216;-63
2022/04/03 01:37:16;;;;;;;15.93;11.82;;;2.30;77.70;;;;;;5098871;28;20208;-63
2022/04/03 01:39:44;;;;;;;13.50;11.82;;;2.30;77.40;;;;;;5115413;28;20189;-63
2022/04/03 01:42:13;;;;;;;15.30;11.93;;;2.30;77.70;;;;;;5100932;28;20473;-64
2022/04/03 01:44:40;;;;;;;14.70;11.80;;;2.30;78.10;;;;;;5094546;28;20243;-63
2022/04/03 01:47:08;;;;;;;12.05;10.75;;;2.30;78.10;;;;;;5111878;28;20635;-64
2022/04/03 01:49:35;;;;;;;13.63;11.70;;;2.30;77.90;;;;;;5114279;28;20196;-63
2022/04/03 01:52:02;;;;;;;17.88;12.38;;;2.30;78.20;;;;;;5097100;28;20181;-63
2022/04/03 01:54:29;;;;;;;15.23;11.52;;;2.40;78.10;;;;;;5094257;28;20269;-63
2022/04/03 01:56:57;;;;;;;14.10;12.43;;;2.30;78.10;;;;;;5109673;28;20194;-63
2022/04/03 01:59:25;;;;;;;13.48;12.07;;;2.40;78.40;;;;;;5114643;28;20205;-64
2022/04/03 02:01:52;;;;;;;15.32;12.13;;;2.40;78.20;;;;;;5099493;28;20217;-64
2022/04/03 02:04:19;;;;;;;13.65;11.85;;;2.30;78.20;;;;;;5094092;28;20276;-63
2022/04/03 02:06:47;;;;;;;15.18;11.48;;;2.40;78.20;;;;;;5106557;28;20677;-63
2022/04/03 02:09:14;;;;;;;14.30;11.55;;;2.40;77.80;;;;;;5114472;28;20188;-63
2022/04/03 02:11:41;;;;;;;12.95;11.55;;;2.40;78.20;;;;;;5102124;28;20238;-63
2022/04/03 02:14:08;;;;;;;14.90;12.98;;;2.40;78.20;;;;;;5093730;28;20200;-63
2022/04/03 02:16:37;;;;;;;13.93;12.43;;;2.40;78.30;;;;;;5103457;28;20299;-63
2022/04/03 02:19:04;;;;;;;13.05;11.73;;;2.40;78.40;;;;;;5114065;28;20200;-63
2022/04/03 02:21:32;;;;;;;13.73;10.90;;;2.40;78.30;;;;;;5103908;28;20246;-63
2022/04/03 02:23:59;;;;;;;14.63;11.15;;;2.40;78.40;;;;;;5094013;28;20204;-63
2022/04/03 02:26:26;;;;;;;15.30;13.18;;;2.40;78.20;;;;;;5101344;28;20219;-64
2022/04/03 02:28:54;;;;;;;15.15;12.73;;;2.40;78.10;;;;;;5113635;28;20188;-63
2022/04/03 02:31:21;;;;;;;14.18;11.63;;;2.40;77.90;;;;;;5106763;27;20216;-64
2022/04/03 02:33:50;;;;;;;13.68;11.10;;;2.40;78.10;;;;;;5093653;28;20535;-63
2022/04/03 02:36:17;;;;;;;17.00;13.18;;;2.40;78.10;;;;;;5098911;28;20267;-65
2022/04/03 02:38:44;;;;;;;20.15;14.70;;;2.40;78.10;;;;;;5114113;28;20225;-64
2022/04/03 02:41:12;;;;;;;16.35;13.20;;;2.40;77.80;;;;;;5108725;28;20181;-63
2022/04/03 02:43:39;;;;;;;16.05;12.75;;;2.40;77.60;;;;;;5093868;28;20654;-63
2022/04/03 02:46:07;;;;;;;17.25;11.43;;;2.50;77.40;;;;;;5108450;28;20208;-63
2022/04/03 02:48:34;;;;;;;15.10;12.93;;;2.50;77.30;;;;;;5106965;28;20499;-63
2022/04/03 02:51:03;;;;;;;16.67;13.30;;;2.50;77.10;;;;;;5093041;28;20704;-63
2022/04/03 02:53:30;;;;;;;17.10;13.52;;;2.40;77.00;;;;;;5098285;28;20367;-63
2022/04/03 02:55:58;;;;;;;13.98;10.95;;;2.40;77.30;;;;;;5113399;28;20188;-63
2022/04/03 02:58:26;;;;;;;14.60;11.52;;;2.40;77.00;;;;;;5108766;28;20185;-63
2022/04/03 03:00:53;;;;;;;13.40;11.60;;;2.40;77.00;;;;;;5092990;28;20220;-64
2022/04/03 03:03:21;;;;;;;13.82;11.73;;;2.40;77.00;;;;;;5095651;28;20192;-64
2022/04/03 03:05:50;;;;;;;14.27;11.65;;;2.40;76.70;;;;;;5113456;28;20580;-64
2022/04/03 03:08:19;;;;;;;16.83;13.05;;;2.40;76.90;;;;;;5110864;28;20191;-64
2022/04/03 03:10:46;;;;;;;15.43;12.30;;;2.40;77.00;;;;;;5092880;28;20272;-63
2022/04/03 03:13:13;;;;;;;13.27;10.98;;;2.40;76.90;;;;;;5093641;28;20604;-63
2022/04/03 03:15:41;;;;;;;15.65;12.98;;;2.40;76.70;;;;;;5112706;28;20268;-63
2022/04/03 03:18:08;;;;;;;13.93;11.65;;;2.40;76.70;;;;;;5111484;28;20212;-64
2022/04/03 03:20:35;;;;;;;17.02;13.55;;;2.40;76.70;;;;;;5113002;28;20647;-64
2022/04/03 03:23:03;;;;;;;14.70;12.15;;;2.40;76.60;;;;;;5105290;28;20189;-64
2022/04/03 03:25:31;;;;;;;16.00;12.70;;;2.40;76.30;;;;;;5092358;28;20700;-63
2022/04/03 03:27:59;;;;;;;16.95;12.75;;;2.40;75.80;;;;;;5092463;28;20240;-64
2022/04/03 03:30:26;;;;;;;14.40;12.10;;;2.40;75.90;;;;;;5092374;28;20231;-63
2022/04/03 03:32:53;;;;;;;19.00;13.05;;;2.30;75.30;;;;;;5092563;28;20193;-63
2022/04/03 03:35:21;;;;;;;17.98;14.77;;;2.30;75.40;;;;;;5099541;28;20184;-63
2022/04/03 03:37:51;;;;;;;15.55;12.98;;;2.30;76.10;;;;;;5112712;27;20665;-64
2022/04/03 03:40:18;;;;;;;16.95;12.20;;;2.30;76.20;;;;;;5105901;28;20181;-64
2022/04/03 03:42:47;;;;;;;14.23;12.57;;;2.30;76.50;;;;;;5092480;28;20636;-64
2022/04/03 03:45:15;;;;;;;17.50;11.90;;;2.30;76.30;;;;;;5093226;28;20186;-63
2022/04/03 03:47:45;;;;;;;17.73;12.48;;;2.30;76.50;;;;;;5092510;28;20386;-64
2022/04/03 03:50:13;;;;;;;14.55;12.45;;;2.30;75.90;;;;;;5098877;28;20196;-64
2022/04/03 03:52:41;;;;;;;17.08;13.82;;;2.20;75.70;;;;;;5112576;28;20196;-64
2022/04/03 03:55:09;;;;;;;16.25;12.52;;;2.20;76.00;;;;;;5106043;28;20192;-64
2022/04/03 03:57:38;;;;;;;17.65;12.75;;;2.20;76.60;;;;;;5092048;28;20185;-63
2022/04/03 04:00:26;;;;;;;13.55;11.88;;;2.20;76.70;;;;;;5096943;28;20181;-63
2022/04/03 04:02:53;;;;;;;16.00;11.52;;;2.20;77.00;;;;;;5112745;28;20279;-64
2022/04/03 04:05:20;;;;;;;16.33;12.10;;;2.20;77.00;;;;;;5105901;28;20222;-67
2022/04/03 04:07:49;;;;;;;15.20;12.00;;;2.20;77.00;;;;;;5091992;28;20577;-63
2022/04/03 04:10:18;;;;;;;16.77;12.80;;;2.20;77.20;;;;;;5097367;28;20272;-64
2022/04/03 04:12:47;;;;;;;18.92;13.13;;;2.20;78.00;;;;;;5112932;28;20230;-64
2022/04/03 04:15:17;;;;;;;13.80;10.20;;;2.30;77.00;;;;;;5110848;28;20712;-63
2022/04/03 04:17:46;;;;;;;16.15;12.15;;;2.30;76.90;;;;;;5112546;28;20228;-64
2022/04/03 04:20:21;;;;;;;15.82;13.23;;;2.30;76.80;;;;;;5108612;28;20189;-64
2022/04/03 04:22:49;;;;;;;17.77;13.13;;;2.30;76.60;;;;;;5092533;28;20289;-66
2022/04/03 04:25:19;;;;;;;17.70;13.45;;;2.30;76.50;;;;;;5099327;28;20181;-64
2022/04/03 04:27:47;;;;;;;16.23;11.52;;;2.30;76.10;;;;;;5115583;28;20219;-64
2022/04/03 04:30:18;;;;;;;12.85;11.07;;;2.30;75.90;;;;;;5109048;28;20238;-64
2022/04/03 04:32:46;;;;;;;17.02;13.77;;;2.30;75.70;;;;;;5096269;28;20250;-64
2022/04/03 04:35:14;;;;;;;15.88;12.18;;;2.30;75.60;;;;;;5102060;28;20186;-63
2022/04/03 04:37:42;;;;;;;15.68;11.95;;;2.30;75.60;;;;;;5116775;28;20184;-63
2022/04/03 04:40:16;;;;;;;17.88;11.43;;;2.20;75.50;;;;;;5110994;28;20211;-64
2022/04/03 04:42:43;;;;;;;19.38;12.50;;;2.20;75.80;;;;;;5098497;28;20213;-63
2022/04/03 04:45:10;;;;;;;14.73;12.10;;;2.20;75.70;;;;;;5116531;28;20196;-63
2022/04/03 04:47:39;;;;;;;14.95;12.45;;;2.20;75.40;;;;;;5114639;28;20219;-64
2022/04/03 04:50:08;;;;;;;15.88;12.32;;;2.20;75.00;;;;;;5095542;28;20193;-63
2022/04/03 04:52:35;;;;;;;15.50;12.95;;;2.20;75.30;;;;;;5095380;28;20189;-64
2022/04/03 04:55:05;;;;;;;15.98;12.68;;;2.20;75.60;;;;;;5116289;28;20657;-64
2022/04/03 04:57:32;;;;;;;16.15;12.93;;;2.20;76.20;;;;;;5116025;28;20211;-64
2022/04/03 04:59:59;;;;;;;15.60;12.38;;;2.20;74.80;;;;;;5095626;28;20625;-63
2022/04/03 05:02:27;;;;;;;18.42;12.10;;;2.20;74.90;;;;;;5095869;28;20212;-63
2022/04/03 05:04:55;;;;;;;19.30;13.90;;;2.20;74.90;;;;;;5114189;28;20184;-63
2022/04/03 05:07:22;;;;;;;17.27;13.63;;;2.20;74.70;;;;;;5115932;28;20245;-63
2022/04/03 05:09:50;;;;;;;15.95;12.45;;;2.20;74.60;;;;;;5103994;28;20229;-63
2022/04/03 05:12:23;;;;;;;17.58;12.10;;;2.20;74.30;;;;;;5116137;28;20661;-64
2022/04/03 05:14:50;;;;;;;14.80;12.02;;;2.20;74.30;;;;;;5098268;28;20196;-64
2022/04/03 05:17:19;;;;;;;16.13;12.82;;;2.20;74.30;;;;;;5095429;28;20316;-63
2022/04/03 05:19:46;;;;;;;16.75;12.30;;;2.20;74.20;;;;;;5110955;28;20237;-65
2022/04/03 05:22:15;;;;;;;15.65;12.85;;;2.20;74.40;;;;;;5115499;28;20639;-63
2022/04/03 05:24:42;;;;;;;13.63;10.40;;;2.20;74.10;;;;;;5100585;28;20191;-63
2022/04/03 05:27:09;;;;;;;16.98;13.18;;;2.20;74.10;;;;;;5095043;28;20281;-63
2022/04/03 05:29:36;;;;;;;23.70;13.30;;;2.20;73.80;;;;;;5108017;28;20659;-64
2022/04/03 05:32:03;;;;;;;20.98;12.18;;;2.20;74.80;;;;;;5115275;28;20704;-64
2022/04/03 05:34:31;;;;;;;16.33;12.23;;;2.20;73.70;;;;;;5103020;28;20189;-64
2022/04/03 05:36:58;;;;;;;16.00;11.60;;;2.30;73.80;;;;;;5097825;28;20181;-64
2022/04/03 05:39:28;;;;;;;15.68;12.48;;;2.30;73.30;;;;;;5115521;28;20195;-63
2022/04/03 05:41:55;;;;;;;16.80;13.73;;;2.30;72.80;;;;;;5112233;28;20188;-64
2022/04/03 05:44:23;;;;;;;16.88;12.70;;;2.30;72.90;;;;;;5095228;28;20211;-64
2022/04/03 05:46:51;;;;;;;16.20;11.77;;;2.30;73.00;;;;;;5095840;28;20219;-63
2022/04/03 05:49:22;;;;;;;15.82;12.00;;;2.30;72.30;;;;;;5115445;28;20726;-64
2022/04/03 05:51:49;;;;;;;15.45;11.32;;;2.40;71.80;;;;;;5113984;28;20231;-63
2022/04/03 05:54:16;;;;;;;15.13;11.73;;;2.40;71.80;;;;;;5094983;28;20196;-63
2022/04/03 05:56:46;;;;;;;16.58;11.98;;;2.40;71.40;;;;;;5094951;28;20215;-64
2022/04/03 05:59:14;;;;;;;14.35;11.55;;;2.50;72.00;;;;;;5115046;28;20731;-63
2022/04/03 06:01:41;;;;;;;15.50;12.63;;;2.50;72.10;;;;;;5113422;28;20230;-63
2022/04/03 06:04:08;;;;;;;14.38;11.35;;;2.50;72.00;;;;;;5114813;28;20253;-63
2022/04/03 06:06:36;;;;;;;16.52;11.65;;;2.60;72.40;;;;;;5113111;28;20188;-63
2022/04/03 06:09:04;;;;;;;17.08;12.60;;;2.70;72.40;;;;;;5094499;28;20262;-63
2022/04/03 06:11:31;;;;;;;15.13;11.60;;;2.70;71.50;;;;;;5095531;28;20200;-63
2022/04/03 06:14:00;;;;;;;20.85;12.82;;;2.70;71.00;;;;;;5094514;28;20191;-63
2022/04/03 06:16:27;;;;;;;19.60;12.05;;;2.80;70.90;;;;;;5092371;28;20228;-64
2022/04/03 06:18:55;;;;;;;14.32;11.57;;;2.90;71.50;;;;;;5114542;28;20192;-63
2022/04/03 06:21:23;;;;;;;14.57;10.82;;;2.90;71.30;;;;;;5114728;28;20192;-65
2022/04/03 06:23:50;;;;;;;21.13;12.30;;;3.00;70.70;;;;;;5114279;28;20218;-64
2022/04/03 06:26:17;;;;;;;16.08;12.07;;;3.00;69.60;;;;;;5114500;28;20220;-63
2022/04/03 06:28:44;;;;;;;14.65;11.35;;;3.00;69.10;;;;;;5112778;28;20706;-64
2022/04/03 06:31:13;;;;;;;14.63;11.23;;;3.10;69.00;;;;;;5114558;28;20235;-63
2022/04/03 06:33:40;;;;;;;14.23;10.23;;;3.10;68.50;;;;;;5096049;28;20192;-63
2022/04/03 06:36:08;;;;;;;13.57;11.40;;;3.10;68.40;;;;;;5094050;28;21175;-63
2022/04/03 06:38:35;;;;;;;18.40;12.27;;;3.10;68.60;;;;;;5109921;28;20199;-64
2022/04/03 06:41:03;;;;;;;16.40;11.55;;;3.10;68.30;;;;;;5113915;28;20192;-63
2022/04/03 06:43:33;;;;;;;13.20;11.50;;;3.20;68.10;;;;;;5098490;28;20192;-63
2022/04/03 06:46:00;;;;;;;12.10;10.07;;;3.20;67.70;;;;;;5093760;28;20231;-63
2022/04/03 06:48:29;;;;;;;12.88;10.07;;;3.10;66.60;;;;;;5107579;28;20299;-63
2022/04/03 06:50:56;;;;;;;15.32;12.60;;;3.00;66.60;;;;;;5113432;28;20224;-63
2022/04/03 06:53:24;;;;;;;17.27;10.98;;;3.00;66.50;;;;;;5112318;28;20185;-63
2022/04/03 06:55:52;;;;;;;17.80;11.45;;;2.90;66.30;;;;;;5094552;28;20242;-63
2022/04/03 06:58:19;;;;;;;15.20;11.68;;;2.90;67.60;;;;;;5091391;28;20181;-64
2022/04/03 07:00:46;;;;;;;16.30;12.18;;;2.90;67.30;;;;;;5091698;28;20618;-63
2022/04/03 07:03:13;;;;;;;18.70;12.52;;;2.90;67.50;;;;;;5094380;28;20635;-64
2022/04/03 07:05:43;;;;;;;17.33;13.13;;;2.90;67.70;;;;;;5091591;28;20208;-63
2022/04/03 07:08:10;;;;;;;16.65;12.20;;;2.90;66.70;;;;;;5090901;28;20680;-64
2022/04/03 07:10:38;;;;;;;17.27;11.93;;;2.90;67.20;;;;;;5096062;28;20185;-63
2022/04/03 07:13:05;;;;;;;16.70;12.10;;;2.90;66.80;;;;;;5088896;28;20639;-70
2022/04/03 07:15:32;;;;;;;17.17;11.77;;;2.90;66.40;;;;;;5092587;28;20189;-64
2022/04/03 07:17:59;;;;;;;15.52;11.65;;;3.00;66.20;;;;;;5091407;28;20609;-64
2022/04/03 07:20:26;;;;;;;16.10;11.18;;;3.00;66.10;;;;;;5092863;28;20234;-64
2022/04/03 07:22:56;;;;;;;16.25;13.23;;;3.10;66.30;;;;;;5091593;28;20204;-65
2022/04/03 07:25:23;;;;;;;16.10;12.40;;;3.10;66.20;;;;;;5091349;28;20238;-64
2022/04/03 07:27:51;;;;;;;15.38;11.48;;;3.20;66.50;;;;;;5090920;28;20222;-64
2022/04/03 07:30:18;;;;;;;14.82;11.65;;;3.30;66.90;;;;;;5091461;28;20193;-64
2022/04/03 07:32:45;;;;;;;18.65;12.32;;;3.50;67.00;;;;;;5091514;28;20220;-64
2022/04/03 07:35:12;;;;;;;15.98;11.98;;;3.60;66.90;;;;;;5093315;28;20583;-65
2022/04/03 07:37:39;;;;;;;19.05;12.45;;;3.70;66.10;;;;;;5093185;28;20192;-63
2022/04/03 07:40:17;;;;;;;16.35;12.93;;;3.90;66.60;;;;;;5091764;28;20185;-64
2022/04/03 07:42:46;;;;;;;20.17;11.95;;;4.20;66.50;;;;;;5090244;28;20181;-65
2022/04/03 07:45:13;;;;;;;16.35;12.52;;;4.40;66.50;;;;;;5092964;28;20212;-64
2022/04/03 07:48:01;;;;;;;14.30;11.35;;;4.60;65.00;;;;;;5091177;28;20220;-63
2022/04/03 07:50:29;;;;;;;13.10;10.80;;;4.80;65.10;;;;;;5093764;28;20189;-64
2022/04/03 07:52:56;;;;;;;16.50;12.55;;;5.10;63.70;;;;;;5094432;28;20196;-65
2022/04/03 07:55:25;;;;;;;14.88;11.13;;;5.30;63.50;;;;;;5093416;28;20224;-65
2022/04/03 07:57:52;;;;;;;13.55;11.55;;;5.60;63.20;;;;;;5086929;28;20209;-64
2022/04/03 08:00:19;;;;;;;14.98;12.65;;;5.90;60.10;;;;;;5090481;28;20602;-64
2022/04/03 08:02:47;;;;;;;14.82;12.52;;;6.20;60.20;;;;;;5092910;28;20216;-65
2022/04/03 08:05:14;;;;;;;16.27;11.50;;;6.50;58.80;;;;;;5091177;28;20196;-65
2022/04/03 08:07:56;;;;;;;13.85;11.75;;;6.70;58.30;;;;;;5090237;28;20196;-64
2022/04/03 08:10:26;;;;;;;15.48;12.23;;;7.00;57.60;;;;;;5092559;28;20287;-65
2022/04/03 08:12:53;;;;;;;12.00;10.45;;;7.40;56.20;;;;;;5086623;28;20555;-64
2022/04/03 08:15:21;;;;;;;12.07;10.18;;;7.60;55.90;;;;;;5090224;28;20185;-65
2022/04/03 08:17:48;;;;;;;14.70;11.15;;;7.90;55.40;;;;;;5094281;28;20303;-64
2022/04/03 08:20:17;;;;;;;12.65;10.43;;;8.20;53.90;;;;;;5090469;28;20220;-64
2022/04/03 08:22:45;;;;;;;14.40;11.55;;;8.50;53.80;;;;;;5091081;28;20189;-64
2022/04/03 08:25:13;;;;;;;12.20;10.90;;;9.30;54.00;;;;;;5094525;28;20705;-64
2022/04/03 08:27:47;;;;;;;14.65;13.05;;;9.70;51.20;;;;;;5091109;28;20596;-65
2022/04/03 08:30:15;;;;;;;13.30;10.75;;;10.20;49.30;;;;;;5087909;28;20242;-64
2022/04/03 08:32:43;;;;;;;14.65;11.70;;;11.00;50.30;;;;;;5090992;28;20195;-64
2022/04/03 08:35:12;;;;;;;11.77;10.52;;;11.90;46.20;;;;;;5091940;28;20272;-65
2022/04/03 08:37:40;;;;;;;12.30;11.00;;;12.60;44.80;;;;;;5092159;28;20188;-64
2022/04/03 08:40:08;;;;;;;12.27;10.93;;;12.80;40.20;;;;;;5087214;28;20215;-64
2022/04/03 08:42:37;;;;;;;12.90;11.00;;;12.60;40.80;;;;;;5089333;28;20228;-64
2022/04/03 08:45:07;;;;;;;14.00;12.02;;;12.40;40.90;;;;;;5092390;28;20191;-65
2022/04/03 08:47:45;;;;;;;14.85;11.65;;;12.10;40.10;;;;;;5090394;28;20201;-64
2022/04/03 08:50:17;;;;;;;11.07;9.57;;;11.70;38.80;;;;;;5091379;28;20639;-66
2022/04/03 08:52:47;;;;;;;14.88;10.50;;;11.40;40.00;;;;;;5090469;28;20197;-64
2022/04/03 08:55:15;;;;;;;12.43;11.07;;;11.30;39.70;;;;;;5090425;28;20647;-64
2022/04/03 08:57:44;;;;;;;12.00;10.57;;;11.20;40.50;;;;;;5091906;28;20201;-64
2022/04/03 09:00:15;;;;;;;11.65;10.43;;;11.20;39.80;;;;;;5093407;28;20247;-64
2022/04/03 09:02:45;;;;;;;11.02;9.65;;;11.10;40.10;;;;;;5090293;28;20185;-64
2022/04/03 09:05:12;;;;;;;14.15;10.93;;;11.00;39.20;;;;;;5089655;28;20189;-69
2022/04/03 09:07:40;;;;;;;10.82;9.73;;;10.80;40.10;;;;;;5089945;28;20201;-65
2022/04/03 09:10:09;;;;;;;12.48;11.18;;;10.90;41.80;;;;;;5090308;28;20311;-65
2022/04/03 09:12:47;;;;;;;12.10;10.00;;;11.00;41.00;;;;;;5090710;28;20647;-67
2022/04/03 09:15:18;;;;;;;13.43;10.85;;;11.10;39.90;;;;;;5091901;28;20203;-65
2022/04/03 09:17:49;;;;;;;12.80;11.40;;;11.10;39.40;;;;;;5094412;28;20315;-67
2022/04/03 09:20:18;;;;;;;10.77;9.68;;;11.30;40.60;;;;;;5092885;28;20228;-66
2022/04/03 09:22:49;;;;;;;11.40;9.68;;;11.90;40.50;;;;;;5096850;28;20189;-67
2022/04/03 09:25:19;;;;;;;18.52;9.65;;;12.80;40.80;;;;;;5093878;28;20193;-66
2022/04/03 09:27:48;;;;;;;10.50;9.43;;;13.80;37.80;;;;;;5090672;28;20542;-65
2022/04/03 09:30:18;;;;;;;9.23;8.25;;;14.10;35.60;;;;;;5094092;28;20305;-66
2022/04/03 09:32:48;;;;;;;10.65;7.65;;;14.30;34.50;;;;;;5095134;28;20185;-67
2022/04/03 09:35:16;;;;;;;9.90;8.33;;;15.40;35.30;;;;;;5090279;28;20261;-66
2022/04/03 09:38:11;;;;;;;8.97;8.07;;;17.90;34.60;;;;;;5093685;28;20488;-65
2022/04/03 09:40:39;;;;;;;10.10;9.03;;;19.20;28.80;;;;;;5091914;28;20448;-66
2022/04/03 09:43:13;;;;;;;9.73;8.70;;;18.90;26.10;;;;;;5093621;28;20472;-67
2022/04/03 09:45:46;;;;;;;10.60;9.37;;;18.40;25.80;;;;;;5090700;28;20470;-65
2022/04/03 09:48:25;;;;;;;9.33;8.43;;;17.70;26.60;;;;;;5093648;28;20514;-65
2022/04/03 09:51:00;;;;;;;12.40;9.23;;;16.80;26.00;;;;;;5093864;28;20441;-66
2022/04/03 09:53:28;;;;;;;10.77;9.77;;;15.90;26.60;;;;;;5092905;28;20478;-66
2022/04/03 09:55:55;;;;;;;11.57;9.90;;;15.10;27.40;;;;;;5091017;28;20431;-65
2022/04/03 09:58:24;;;;;;;10.53;9.47;;;14.30;27.70;;;;;;5093534;28;20548;-64
2022/04/03 10:00:53;;;;;;;10.73;9.47;;;13.70;28.80;;;;;;5097881;28;20518;-66
2022/04/03 10:03:23;;;;;;;15.18;10.05;;;13.10;29.20;;;;;;5092952;28;20978;-65
2022/04/03 10:05:51;;;;;;;10.55;9.48;;;12.70;30.50;;;;;;5094516;28;20508;-64
2022/04/03 10:08:20;;;;;;;11.57;10.07;;;12.30;31.40;;;;;;5092831;28;20189;-65
2022/04/03 10:10:47;;;;;;;10.50;9.32;;;12.00;32.00;;;;;;5092692;28;20296;-65
2022/04/03 10:13:15;;;;;;;12.18;10.25;;;11.70;31.80;;;;;;5093498;28;20186;-64
2022/04/03 10:15:42;;;;;;;15.45;12.13;;;11.30;32.30;;;;;;5092368;28;20628;-65
2022/04/03 10:18:13;;;;;;;11.05;9.95;;;10.90;32.90;;;;;;5093283;28;20251;-64
2022/04/03 10:20:42;;;;;;;11.68;9.38;;;10.70;33.90;;;;;;5089020;28;20228;-66
2022/04/03 10:23:12;;;;;;;9.60;8.60;;;10.50;34.50;;;;;;5093235;28;20262;-64
2022/04/03 10:25:41;;;;;;;12.20;10.07;;;10.30;35.10;;;;;;5093140;28;20670;-64
2022/04/03 10:28:10;;;;;;;12.07;10.15;;;10.00;35.50;;;;;;5092473;28;20263;-65
2022/04/03 10:30:38;;;;;;;11.32;9.73;;;9.80;36.50;;;;;;5093427;28;20221;-64
2022/04/03 10:33:06;;;;;;;11.65;9.10;;;9.70;37.30;;;;;;5092518;28;20631;-65
2022/04/03 10:35:36;;;;;;;11.02;9.48;;;9.60;37.80;;;;;;5092524;28;20470;-65
2022/04/03 10:38:04;;;;;;;11.68;9.23;;;9.40;38.40;;;;;;5093072;28;20213;-65
2022/04/03 10:40:35;;;;;;;10.45;9.15;;;9.30;39.00;;;;;;5092571;28;20636;-65
2022/04/03 10:43:06;;;;;;;12.95;9.73;;;9.20;38.80;;;;;;5092596;28;20224;-65
2022/04/03 10:45:34;;;;;;;9.02;8.13;;;9.10;38.70;;;;;;5096304;28;20188;-65
2022/04/03 10:48:31;;;;;;;9.60;7.90;;;9.00;39.80;;;;;;5092126;28;20185;-65
2022/04/03 10:51:10;;;;;;;9.55;7.97;;;8.90;39.70;;;;;;5083534;28;20238;-65
2022/04/03 10:53:40;;;;;;;12.10;10.48;;;8.60;39.40;;;;;;5091034;28;20307;-64
2022/04/03 10:56:11;;;;;;;9.93;8.90;;;8.50;40.90;;;;;;5095512;28;20276;-65
2022/04/03 10:58:41;;;;;;;9.57;8.48;;;8.40;42.00;;;;;;5095430;28;20216;-64
2022/04/03 11:01:11;;;;;;;10.43;9.25;;;8.30;42.20;;;;;;5091660;28;20704;-64
2022/04/03 11:03:39;;;;;;;13.77;9.85;;;8.20;42.90;;;;;;5090619;28;20308;-64
2022/04/03 11:06:32;;;;;;;9.57;8.57;;;8.10;43.40;;;;;;5090839;28;20192;-64
2022/04/03 11:09:02;;;;;;;9.02;7.25;;;7.90;43.20;;;;;;5091236;28;20243;-63
2022/04/03 11:11:46;;;;;;;11.25;7.30;;;7.90;43.30;;;;;;5088582;28;20215;-65
2022/04/03 11:14:34;;;;;;;9.05;7.28;;;7.80;43.50;;;;;;5091272;28;20272;-63
2022/04/03 11:17:01;;;;;;;8.70;7.80;;;7.80;43.50;;;;;;5091137;28;20221;-63
2022/04/03 11:19:36;;;;;;;10.68;8.80;;;7.80;43.30;;;;;;5091632;28;20275;-62
2022/04/03 11:22:06;;;;;;;9.15;7.93;;;7.70;43.70;;;;;;5091569;28;20192;-67
2022/04/03 11:24:39;;;;;;;8.60;7.20;;;7.70;43.70;;;;;;5091022;28;20334;-65
2022/04/03 11:27:09;;;;;;;9.93;8.10;;;7.70;43.10;;;;;;5092363;28;20284;-69
2022/04/03 11:29:37;;;;;;;12.40;9.60;;;7.70;43.70;;;;;;5094226;28;20220;-72
2022/04/03 11:32:06;;;;;;;10.00;7.88;;;7.60;45.00;;;;;;5091474;28;20199;-66
2022/04/03 11:34:34;;;;;;;11.18;9.90;;;7.60;45.40;;;;;;5091964;28;20196;-81
2022/04/03 11:37:05;;;;;;;10.55;9.32;;;7.50;45.60;;;;;;5091489;28;20185;-79
2022/04/03 11:39:34;;;;;;;8.90;7.72;;;7.50;46.30;;;;;;5093592;28;20347;-79
2022/04/03 11:42:07;;;;;;;10.77;9.07;;;7.50;45.90;;;;;;5094773;28;20193;-78
2022/04/03 11:44:35;;;;;;;12.27;8.45;;;7.60;45.70;;;;;;5091117;28;20197;-74
2022/04/03 11:47:04;;;;;;;10.82;7.78;;;7.70;45.80;;;;;;5090977;28;20181;-77
2022/04/03 11:49:32;;;;;;;10.02;8.13;;;7.80;45.90;;;;;;5091172;28;20663;-78
2022/04/03 11:52:08;;;;;;;13.48;8.60;;;7.90;46.00;;;;;;5089554;28;20193;-77
2022/04/03 11:54:37;;;;;;;9.85;8.02;;;8.10;45.70;;;;;;5087261;28;20197;-75
2022/04/03 11:57:10;;;;;;;9.90;8.10;;;8.30;46.00;;;;;;5092026;28;20266;-82
2022/04/03 11:59:38;;;;;;;9.63;8.63;;;8.50;46.30;;;;;;5090722;28;20191;-82
2022/04/03 12:02:14;;;;;;;9.52;8.48;;;8.80;45.40;;;;;;5090595;28;20720;-82
2022/04/03 12:04:42;;;;;;;9.70;8.25;;;9.00;44.50;;;;;;5090791;28;20242;-70
2022/04/03 12:07:13;;;;;;;7.93;7.10;;;9.30;43.50;;;;;;5090326;28;20606;-72
2022/04/03 12:09:42;;;;;;;9.45;8.23;;;9.60;43.30;;;;;;5093533;28;20258;-71
2022/04/03 12:12:10;;;;;;;8.45;7.30;;;9.80;43.40;;;;;;5090851;28;20553;-72
2022/04/03 12:14:41;;;;;;;7.25;6.55;;;10.10;41.20;;;;;;5089678;28;20551;-71
2022/04/03 12:17:10;;;;;;;9.85;8.70;;;10.40;40.50;;;;;;5094436;28;20220;-72
2022/04/03 12:19:39;;;;;;;9.32;7.05;;;10.60;39.10;;;;;;5092411;28;20184;-72
2022/04/03 12:22:08;;;;;;;10.57;6.88;;;10.80;39.60;;;;;;5090065;28;20544;-72
2022/04/03 12:24:38;;;;;;;7.05;6.22;;;11.10;38.40;;;;;;5091072;28;20554;-72
2022/04/03 12:27:12;;;;;;;10.65;7.05;;;11.60;38.90;;;;;;5091100;28;20283;-72
2022/04/03 12:29:40;;;;;;;6.95;6.25;;;12.30;39.90;;;;;;5091166;28;20220;-72
2022/04/03 12:32:09;;;;;;;8.02;6.70;;;13.30;39.10;;;;;;5091187;28;20223;-72
2022/04/03 12:34:37;;;;;;;7.70;6.47;;;14.50;37.70;;;;;;5090795;28;20224;-72
2022/04/03 12:37:06;;;;;;;10.87;6.80;;;15.50;37.10;;;;;;5090581;28;20489;-72
2022/04/03 12:39:40;;;;;;;7.23;6.50;;;16.30;32.10;;;;;;5090929;28;20831;-72
2022/04/03 12:42:26;;;;;;;6.23;5.63;;;16.30;30.20;;;;;;5091215;28;20434;-73
2022/04/03 12:44:59;;;;;;;7.00;6.40;;;16.40;30.50;;;;;;5091092;28;20834;-72
2022/04/03 12:47:34;;;;;;;7.70;5.93;;;16.30;28.70;;;;;;5091356;28;20492;-72